< Typhoon 201912 2019 Season Typhoon 201914 >
Typhoon 201913 (LINGLING)
General InformationTrack Information on Google MapsDetailed Wind InformationForecast History on Google MapsAccess Analytics MapList of All Images || NewsDisaster Info.WeblogTrackbackTyphoon FrontTwiphoonTyphoon Now!Typhoon ImaginationJMA Disaster Info. XMLResourceGoogle EarthGE AnimationAtom FeedGeoJSON
Detalied Best Track (Time Zone = UTC)
Year Month Day Hour Lat. Long. Pressure (hPa) Wind (kt) Class Image Chart
2019 8 31 00 6.2 133.7 1006 0 2 Image Chart
2019 8 31 06 7.0 132.9 1004 0 2 Image Chart
2019 8 31 12 8.0 132.0 1006 0 2 Image Chart
2019 8 31 18 9.0 131.3 1004 0 2 Image Chart
2019 9 1 00 10.8 130.2 1006 0 2 Image Chart
2019 9 1 06 12.6 129.1 1004 0 2 Image Chart
2019 9 1 12 13.8 127.7 1002 0 2 Image Chart
2019 9 1 18 14.4 126.9 1002 0 2 Image Chart
2019 9 2 00 15.2 126.1 1000 35 3 Image Chart
2019 9 2 06 16.7 125.0 1000 35 3 Image Chart
2019 9 2 12 18.0 124.3 998 40 3 Image Chart
2019 9 2 18 18.9 124.0 994 45 3 Image Chart
2019 9 3 00 19.7 123.9 992 50 4 Image Chart
2019 9 3 06 20.6 124.0 990 55 4 Image Chart
2019 9 3 12 21.3 124.2 985 60 4 Image Chart
2019 9 3 18 21.7 124.4 980 65 5 Image Chart
2019 9 4 00 22.0 124.6 975 70 5 Image Chart
2019 9 4 06 22.4 124.9 970 75 5 Image Chart
2019 9 4 12 22.9 125.3 965 80 5 Image Chart
2019 9 4 15 23.3 125.4 960 80 5 Image Chart
2019 9 4 18 23.5 125.4 955 85 5 Image Chart
2019 9 4 21 23.8 125.3 950 85 5 Image Chart
2019 9 5 00 24.2 125.3 950 85 5 Image Chart
2019 9 5 03 24.5 125.3 945 90 5 Image Chart
2019 9 5 06 24.9 125.3 940 95 5 Image Chart
2019 9 5 09 25.4 125.3 940 95 5 Image Chart
2019 9 5 12 25.7 125.2 940 95 5 Image Chart
2019 9 5 15 26.2 125.2 940 95 5 Image Chart
2019 9 5 18 26.8 125.2 945 90 5 Image Chart
2019 9 5 21 27.3 125.2 945 90 5 Image Chart
2019 9 6 00 28.0 125.1 950 85 5 Image Chart
2019 9 6 06 29.6 125.2 955 80 5 Image Chart
2019 9 6 12 31.4 125.2 960 75 5 Image Chart
2019 9 6 18 33.6 125.2 965 70 5 Image Chart
2019 9 7 00 35.8 125.1 970 65 5 Image Chart
2019 9 7 06 37.9 125.2 975 60 4 Image Chart
2019 9 7 12 40.8 126.4 985 50 4 Image Chart
2019 9 7 18 44.4 128.5 985 45 3 Image Chart
2019 9 8 00 47.3 130.5 984 0 6 Image Chart
2019 9 8 06 48.8 132.8 982 0 6 Image Chart
2019 9 8 12 51.1 137.2 982 0 6 Image Chart
2019 9 8 18 52.7 140.4 976 0 6 Image Chart
2019 9 9 00 53.9 143.4 976 0 6 Image Chart
2019 9 9 06 54.0 147.7 972 0 6 Image Chart
2019 9 9 12 54.6 151.2 972 0 6 Image Chart
2019 9 9 18 55.2 155.6 976 0 6 Image Chart
2019 9 10 00 55.6 162.6 980 0 6 Image Chart
2019 9 10 06 57.1 166.4 980 0 6 Image Chart
2019 9 10 12 57.4 168.4 980 0 6 Image Chart
2019 9 10 18 58.0 170.6 978 0 6 Image Chart
2019 9 11 00 58.3 171.9 978 0 6 Image Chart
2019 9 11 06 58.5 173.6 974 0 6 Image Chart
2019 9 11 12 59.1 176.6 972 0 6 Image Chart
2019 9 11 18 59.4 179.4 972 0 6 Image Chart
2019 9 12 00 60.1 183.1 970 0 6 Image Chart
Japan Meteorological Agency Best Track Data | Correction Date : 2019-10-18
< Typhoon 201912 2019 Season Typhoon 201914 >

Help